createdAt,value
2018-09-12T00:01:56.023Z,101423.91
2018-09-12T00:06:58.292Z,101432.83
2018-09-12T00:12:00.415Z,101421.09
2018-09-12T00:17:02.550Z,101417.05
2018-09-12T00:22:05.271Z,101409.02
2018-09-12T00:27:07.416Z,101407.22
2018-09-12T00:32:09.544Z,101398.77
2018-09-12T00:37:11.683Z,101405.89
2018-09-12T00:42:13.811Z,101404.73
2018-09-12T00:47:15.964Z,101396.63
2018-09-12T00:52:18.234Z,101396.97
2018-09-12T00:57:20.347Z,101402.47
2018-09-12T01:02:22.497Z,101408.90
2018-09-12T01:07:24.644Z,101391.81
2018-09-12T01:12:26.780Z,101407.85
2018-09-12T01:17:28.940Z,101413.30
2018-09-12T01:22:31.070Z,101427.34
2018-09-12T01:27:33.226Z,101443.31
2018-09-12T01:32:35.421Z,101436.94
2018-09-12T01:37:37.530Z,101430.23
2018-09-12T01:42:39.681Z,101434.02
2018-09-12T01:47:41.795Z,101433.95
2018-09-12T01:52:44.343Z,101436.84
2018-09-12T01:57:46.457Z,101425.32
2018-09-12T02:02:48.634Z,101427.24
2018-09-12T02:07:50.788Z,101411.25
2018-09-12T02:12:52.885Z,101408.77
2018-09-12T02:17:55.012Z,101393.63
2018-09-12T02:22:57.176Z,101401.24
2018-09-12T02:27:59.337Z,101403.50
2018-09-12T02:33:01.502Z,101402.55
2018-09-12T02:38:03.709Z,101375.18
2018-09-12T02:43:05.869Z,101358.13
2018-09-12T02:48:07.978Z,101333.56
2018-09-12T02:53:10.088Z,101360.40
2018-09-12T02:58:12.216Z,101359.97
2018-09-12T03:03:14.322Z,101350.28
2018-09-12T03:08:16.464Z,101335.24
2018-09-12T03:13:18.607Z,101333.28
2018-09-12T03:18:20.747Z,101334.50
2018-09-12T03:23:22.887Z,101358.00
2018-09-12T03:28:25.031Z,101369.81
2018-09-12T03:33:27.149Z,101368.94
2018-09-12T03:38:29.256Z,101374.93
2018-09-12T03:43:31.374Z,101368.16
2018-09-12T03:48:33.495Z,101360.83
2018-09-12T03:53:35.623Z,101349.22
2018-09-12T03:58:37.750Z,101335.21
2018-09-12T04:03:39.883Z,101323.38
2018-09-12T04:08:41.983Z,101328.47
2018-09-12T04:13:44.161Z,101331.58
2018-09-12T04:18:46.311Z,101343.44
2018-09-12T04:23:48.490Z,101336.67
2018-09-12T04:28:50.614Z,101328.56
2018-09-12T04:33:52.741Z,101316.41
2018-09-12T04:38:54.858Z,101344.28
2018-09-12T04:43:57.062Z,101352.48
2018-09-12T04:48:59.251Z,101358.34
2018-09-12T04:54:01.396Z,101373.47
2018-09-12T04:59:03.904Z,101384.66
2018-09-12T05:04:06.036Z,101387.86
2018-09-12T05:09:09.441Z,101395.93
2018-09-12T05:14:11.595Z,101392.58
2018-09-12T05:19:13.777Z,101400.22
2018-09-12T05:24:15.943Z,101400.63
2018-09-12T05:29:18.065Z,101393.01
2018-09-12T05:34:20.183Z,101400.63
2018-09-12T05:39:22.331Z,101402.55
2018-09-12T05:44:24.471Z,101402.55
2018-09-12T05:49:26.637Z,101398.75
2018-09-12T05:54:28.770Z,101380.66
2018-09-12T05:59:30.904Z,101382.28
2018-09-12T06:04:33.047Z,101370.65
2018-09-12T06:09:35.208Z,101360.95
2018-09-12T06:14:37.371Z,101358.48
2018-09-12T06:19:39.463Z,101367.32
2018-09-12T06:24:41.632Z,101364.39
2018-09-12T06:29:43.819Z,101358.63
2018-09-12T06:34:45.914Z,101362.13
2018-09-12T06:39:48.084Z,101369.13
2018-09-12T06:44:50.225Z,101367.88
2018-09-12T06:49:52.525Z,101369.22
2018-09-12T06:54:54.641Z,101374.44
2018-09-12T06:59:56.759Z,101385.15
2018-09-12T07:04:58.898Z,101397.05
2018-09-12T07:10:00.990Z,101380.07
2018-09-12T07:15:03.164Z,101388.27
2018-09-12T07:20:05.336Z,101386.59
2018-09-12T07:25:07.502Z,101396.76
2018-09-12T07:30:09.685Z,101393.96
2018-09-12T07:35:11.799Z,101396.42
2018-09-12T07:40:13.933Z,101407.78
2018-09-12T07:45:16.080Z,101437.84
2018-09-12T07:50:18.232Z,101449.05
2018-09-12T07:55:20.434Z,101455.95
2018-09-12T08:00:22.592Z,101474.63
2018-09-12T08:05:24.683Z,101462.42
2018-09-12T08:10:26.785Z,101473.88
2018-09-12T08:15:28.923Z,101485.50
2018-09-12T08:20:31.036Z,101481.68
2018-09-12T08:25:33.236Z,101481.58
2018-09-12T08:30:35.376Z,101505.05
2018-09-12T08:35:37.526Z,101517.55
2018-09-12T08:40:39.663Z,101518.65
2018-09-12T08:45:42.020Z,101532.64
2018-09-12T08:50:48.199Z,101540.69
2018-09-12T08:55:50.349Z,101536.80
2018-09-12T09:00:52.469Z,101538.27
2018-09-12T09:05:54.613Z,101548.37
2018-09-12T09:10:57.064Z,101550.55
2018-09-12T09:15:59.197Z,101550.39
2018-09-12T09:21:01.398Z,101558.16
2018-09-12T09:26:03.618Z,101564.38
2018-09-12T09:31:05.750Z,101558.07
2018-09-12T09:36:07.951Z,101563.48
2018-09-12T09:41:10.120Z,101576.70
2018-09-12T09:46:12.332Z,101564.16
2018-09-12T09:51:14.502Z,101584.31
2018-09-12T09:56:16.708Z,101585.00
2018-09-12T10:01:24.646Z,101587.64
2018-09-12T10:06:32.183Z,101601.48
2018-09-12T10:11:34.310Z,101587.51
2018-09-12T10:16:36.457Z,101596.81
2018-09-12T10:21:38.587Z,101601.54
2018-09-12T10:26:40.756Z,101585.46
2018-09-12T10:31:42.966Z,101600.48
2018-09-12T10:36:45.123Z,101600.61
2018-09-12T10:41:47.328Z,101609.02
2018-09-12T10:46:49.478Z,101605.63
2018-09-12T10:51:51.700Z,101612.96
2018-09-12T10:56:53.859Z,101617.25
2018-09-12T11:01:56.006Z,101625.80
2018-09-12T11:06:58.130Z,101626.61
2018-09-12T11:12:00.283Z,101615.38
2018-09-12T11:17:02.458Z,101611.12
2018-09-12T11:22:04.635Z,101620.58
2018-09-12T11:27:06.811Z,101637.05
2018-09-12T11:32:08.979Z,101638.89
2018-09-12T11:37:11.123Z,101655.36
2018-09-12T11:42:13.284Z,101663.48
2018-09-12T11:47:15.389Z,101661.25
2018-09-12T11:52:17.512Z,101670.56
2018-09-12T11:57:19.658Z,101658.35
2018-09-12T12:02:22.268Z,101663.33
2018-09-12T12:07:24.554Z,101667.97
2018-09-12T12:12:26.691Z,101673.13
2018-09-12T12:17:28.844Z,101684.92
2018-09-12T12:22:30.979Z,101682.63
2018-09-12T12:27:33.212Z,101684.43
2018-09-12T12:32:35.360Z,101683.30
2018-09-12T12:37:37.539Z,101679.23
2018-09-12T12:42:39.687Z,101680.31
2018-09-12T12:47:41.870Z,101678.09
2018-09-12T12:52:44.002Z,101689.00
2018-09-12T12:57:46.439Z,101699.33
2018-09-12T13:02:48.612Z,101693.20
2018-09-12T13:07:50.789Z,101685.73
2018-09-12T13:12:52.951Z,101706.08
2018-09-12T13:17:55.402Z,101702.42
2018-09-12T13:22:57.588Z,101717.94
2018-09-12T13:27:59.860Z,101707.95
2018-09-12T13:33:01.995Z,101706.23
2018-09-12T13:38:04.199Z,101710.20
2018-09-12T13:43:06.366Z,101716.17
2018-09-12T13:48:08.586Z,101714.87
2018-09-12T13:53:10.766Z,101718.63
2018-09-12T13:58:12.906Z,101722.27
2018-09-12T14:03:15.417Z,101716.52
2018-09-12T14:08:17.552Z,101740.73
2018-09-12T14:13:19.708Z,101750.27
2018-09-12T14:18:21.819Z,101714.77
2018-09-12T14:23:23.971Z,101732.64
2018-09-12T14:28:26.158Z,101723.45
2018-09-12T14:33:28.333Z,101721.91
2018-09-12T14:38:30.505Z,101736.94
2018-09-12T14:43:32.699Z,101735.97
2018-09-12T14:48:35.395Z,101751.63
2018-09-12T14:53:37.558Z,101744.47
2018-09-12T14:58:39.729Z,101757.33
2018-09-12T15:03:41.870Z,101754.06
2018-09-12T15:08:44.027Z,101740.83
2018-09-12T15:13:46.212Z,101768.91
2018-09-12T15:18:48.628Z,101766.85
2018-09-12T15:23:50.799Z,101762.09
2018-09-12T15:28:53.011Z,101767.06
2018-09-12T15:33:55.180Z,101771.16
2018-09-12T15:38:57.362Z,101761.38
2018-09-12T15:43:59.530Z,101764.20
2018-09-12T15:49:01.671Z,101755.33
2018-09-12T15:54:03.845Z,101758.79
2018-09-12T15:59:06.063Z,101785.08
2018-09-12T16:04:09.186Z,101772.15
2018-09-12T16:09:11.429Z,101758.02
2018-09-12T16:14:14.338Z,101768.56
2018-09-12T16:19:16.466Z,101764.16
2018-09-12T16:24:18.605Z,101769.13
2018-09-12T16:29:20.807Z,101775.36
2018-09-12T16:34:23.007Z,101776.59
2018-09-12T16:39:25.199Z,101777.77
2018-09-12T16:44:27.404Z,101775.77
2018-09-12T16:49:29.605Z,101779.82
2018-09-12T16:54:32.067Z,101782.16
2018-09-12T16:59:34.310Z,101765.40
2018-09-12T17:04:36.498Z,101770.50
2018-09-12T17:09:38.709Z,101756.44
2018-09-12T17:14:40.949Z,101767.30
2018-09-12T17:19:43.763Z,101786.91
2018-09-12T17:24:45.974Z,101790.73
2018-09-12T17:29:49.000Z,101798.27
2018-09-12T17:34:51.174Z,101794.92
2018-09-12T17:39:53.401Z,101800.78
2018-09-12T17:44:55.646Z,101807.48
2018-09-12T17:49:57.807Z,101795.91
2018-09-12T17:55:00.491Z,101803.70
2018-09-12T18:00:02.734Z,101798.02
2018-09-12T18:05:05.070Z,101806.37
2018-09-12T18:10:07.363Z,101802.23
2018-09-12T18:15:09.644Z,101795.05
2018-09-12T18:20:11.937Z,101808.15
2018-09-12T18:25:14.252Z,101822.08
2018-09-12T18:30:17.723Z,101831.05
2018-09-12T18:35:19.992Z,101825.53
2018-09-12T18:40:22.404Z,101833.95
2018-09-12T18:45:24.816Z,101841.25
2018-09-12T18:50:27.066Z,101831.30
2018-09-12T18:55:29.413Z,101850.52
2018-09-12T19:00:32.496Z,101854.08
2018-09-12T19:05:34.735Z,101852.98
2018-09-12T19:10:37.392Z,101857.23
2018-09-12T19:15:39.721Z,101861.31
2018-09-12T19:20:43.914Z,101877.99
2018-09-12T19:25:46.792Z,101875.75
2018-09-12T19:30:49.623Z,101867.20
2018-09-12T19:35:53.492Z,101864.34
2018-09-12T19:40:55.888Z,101869.70
2018-09-12T19:45:58.866Z,101860.27
2018-09-12T19:51:01.258Z,101866.45
2018-09-12T19:56:03.478Z,101864.91
2018-09-12T20:01:05.761Z,101863.05
2018-09-12T20:06:08.044Z,101866.00
2018-09-12T20:11:10.318Z,101866.77
2018-09-12T20:16:12.669Z,101860.25
2018-09-12T20:21:14.862Z,101856.83
2018-09-12T20:26:17.104Z,101861.73
2018-09-12T20:31:20.701Z,101866.03
2018-09-12T20:36:22.942Z,101857.08
2018-09-12T20:41:25.719Z,101869.31
2018-09-12T20:46:27.952Z,101863.70
2018-09-12T20:51:30.127Z,101867.25
2018-09-12T20:56:32.410Z,101876.58
2018-09-12T21:01:34.612Z,101867.98
2018-09-12T21:06:36.860Z,101874.30
2018-09-12T21:11:39.556Z,101871.27
2018-09-12T21:16:41.743Z,101874.55
2018-09-12T21:21:43.869Z,101887.52
2018-09-12T21:26:46.042Z,101888.16
2018-09-12T21:31:48.284Z,101896.17
2018-09-12T21:36:50.423Z,101899.70
2018-09-12T21:41:52.617Z,101901.09
2018-09-12T21:46:54.875Z,101902.02
2018-09-12T21:51:56.992Z,101900.03
2018-09-12T21:56:59.109Z,101907.27
2018-09-12T22:02:01.278Z,101906.20
2018-09-12T22:07:03.496Z,101911.10
2018-09-12T22:12:05.646Z,101911.30
2018-09-12T22:17:07.854Z,101908.36
2018-09-12T22:22:10.060Z,101903.77
2018-09-12T22:27:12.194Z,101898.64
2018-09-12T22:32:14.364Z,101903.48
2018-09-12T22:37:16.509Z,101902.05
2018-09-12T22:42:18.614Z,101900.20
2018-09-12T22:47:20.743Z,101897.02
2018-09-12T22:52:22.924Z,101894.55
2018-09-12T22:57:25.053Z,101907.15
2018-09-12T23:02:27.171Z,101895.77
2018-09-12T23:07:29.323Z,101897.77
2018-09-12T23:12:31.506Z,101888.09
2018-09-12T23:17:33.657Z,101892.98
2018-09-12T23:22:35.968Z,101890.20
2018-09-12T23:27:38.090Z,101888.45
2018-09-12T23:32:40.287Z,101886.00
2018-09-12T23:37:42.454Z,101888.97
2018-09-12T23:42:44.549Z,101883.94
2018-09-12T23:47:46.691Z,101875.59
2018-09-12T23:52:48.814Z,101878.47
2018-09-12T23:57:50.991Z,101879.45
